Time;durP1;ratioP1;P1;durP2;ratioP2;P2;SDS_P1;SDS_P2;PMS_P1;PMS_P2;Temp;Humidity;BMP_temperature;BMP_pressure;BME280_temperature;BME280_humidity;BME280_pressure;Samples;Min_cycle;Max_cycle;Signal;HPM_P1;HPM_P2
2022/07/22 00:01:06;;;;;;;5.50;3.30;;;21.60;99.90;;;;;;4977321;28;20152;-52
2022/07/22 00:03:31;;;;;;;5.15;3.78;;;21.60;99.90;;;;;;4977296;28;20026;-48
2022/07/22 00:05:57;;;;;;;6.10;3.47;;;21.60;99.90;;;;;;4977538;28;20035;-49
2022/07/22 00:08:22;;;;;;;9.27;3.40;;;21.50;99.90;;;;;;4977218;28;20110;-50
2022/07/22 00:10:48;;;;;;;4.70;3.20;;;21.40;99.90;;;;;;4975972;28;20047;-50
2022/07/22 00:13:14;;;;;;;4.03;3.28;;;21.50;99.90;;;;;;4977160;28;20039;-50
2022/07/22 00:15:39;;;;;;;3.45;3.00;;;21.60;99.90;;;;;;4976983;28;20042;-52
2022/07/22 00:18:05;;;;;;;7.47;3.15;;;21.50;99.90;;;;;;4992325;28;20023;-53
2022/07/22 00:20:30;;;;;;;6.07;3.78;;;21.50;99.90;;;;;;4992229;28;20035;-48
2022/07/22 00:22:56;;;;;;;3.90;3.10;;;21.50;99.90;;;;;;4991832;28;20117;-50
2022/07/22 00:25:23;;;;;;;5.18;3.10;;;21.50;99.90;;;;;;4991870;28;20034;-48
2022/07/22 00:27:49;;;;;;;6.00;3.40;;;21.50;99.90;;;;;;4991795;28;20022;-49
2022/07/22 00:30:14;;;;;;;4.03;2.88;;;21.50;99.90;;;;;;4991909;28;20023;-49
2022/07/22 00:32:40;;;;;;;6.18;3.33;;;21.50;99.90;;;;;;4992249;28;20038;-49
2022/07/22 00:35:07;;;;;;;3.33;3.03;;;21.60;99.90;;;;;;4991625;28;20034;-49
2022/07/22 00:37:32;;;;;;;5.78;3.47;;;21.50;99.90;;;;;;4991699;28;20478;-48
2022/07/22 00:39:58;;;;;;;5.05;3.83;;;21.50;99.90;;;;;;4976654;28;20070;-49
2022/07/22 00:42:23;;;;;;;5.82;3.60;;;21.50;99.90;;;;;;4991649;28;20127;-51
2022/07/22 00:44:49;;;;;;;7.57;3.90;;;21.50;99.90;;;;;;4991560;28;20058;-48
2022/07/22 00:47:15;;;;;;;4.57;3.75;;;21.50;99.90;;;;;;4976510;28;20031;-49
2022/07/22 00:49:40;;;;;;;5.35;4.18;;;21.50;99.90;;;;;;4991646;28;20033;-52
2022/07/22 00:52:07;;;;;;;4.18;3.63;;;21.50;99.90;;;;;;4991448;28;20031;-51
2022/07/22 00:54:33;;;;;;;4.38;3.53;;;21.50;99.90;;;;;;4976354;28;20031;-48
2022/07/22 00:56:58;;;;;;;5.55;3.88;;;21.50;99.90;;;;;;4991345;28;20019;-48
2022/07/22 00:59:24;;;;;;;3.88;3.47;;;21.50;99.90;;;;;;4974944;28;20130;-48
2022/07/22 01:01:51;;;;;;;4.30;3.58;;;21.50;99.90;;;;;;4975557;28;20033;-48
2022/07/22 01:04:17;;;;;;;6.82;4.47;;;21.50;99.90;;;;;;4992229;28;20031;-50
2022/07/22 01:06:45;;;;;;;5.57;4.43;;;21.50;99.90;;;;;;4991047;28;20118;-48
2022/07/22 01:09:12;;;;;;;5.00;3.80;;;21.40;99.90;;;;;;4992222;28;20069;-48
2022/07/22 01:11:39;;;;;;;6.72;4.30;;;21.30;99.90;;;;;;4975976;28;20037;-49
2022/07/22 01:14:05;;;;;;;5.00;4.15;;;21.30;99.90;;;;;;4975904;28;20145;-49
2022/07/22 01:16:31;;;;;;;6.25;3.83;;;21.30;99.90;;;;;;4976026;28;20106;-49
2022/07/22 01:18:56;;;;;;;4.72;3.75;;;21.30;99.90;;;;;;4976014;28;20027;-49
2022/07/22 01:21:22;;;;;;;5.55;3.45;;;21.20;99.90;;;;;;4974927;28;20035;-49
2022/07/22 01:23:48;;;;;;;6.75;4.43;;;21.30;99.90;;;;;;4975797;28;20092;-48
2022/07/22 01:26:14;;;;;;;5.22;3.78;;;21.20;99.90;;;;;;4974840;28;20019;-50
2022/07/22 01:28:40;;;;;;;5.25;3.75;;;21.30;99.90;;;;;;4991535;28;20019;-48
2022/07/22 01:31:06;;;;;;;5.43;4.00;;;21.30;99.90;;;;;;4991168;28;20019;-48
2022/07/22 01:33:32;;;;;;;6.40;4.20;;;21.20;99.90;;;;;;4975725;28;20026;-51
2022/07/22 01:35:58;;;;;;;5.30;4.00;;;21.20;99.90;;;;;;4990522;28;20035;-50
2022/07/22 01:38:24;;;;;;;6.07;4.13;;;21.20;99.90;;;;;;4990701;28;20030;-51
2022/07/22 01:40:49;;;;;;;8.00;4.38;;;21.20;99.90;;;;;;4975716;28;20103;-54
2022/07/22 01:43:17;;;;;;;6.07;4.10;;;21.20;99.90;;;;;;4975507;28;20018;-51
2022/07/22 01:45:45;;;;;;;4.97;3.97;;;21.20;99.90;;;;;;4990445;28;20033;-49
2022/07/22 01:48:11;;;;;;;6.88;4.47;;;21.30;99.90;;;;;;4991215;28;20034;-48
2022/07/22 01:50:37;;;;;;;4.43;3.75;;;21.30;99.90;;;;;;4975562;28;20023;-48
2022/07/22 01:53:02;;;;;;;5.30;4.07;;;21.30;99.90;;;;;;4975381;28;20105;-48
2022/07/22 01:55:28;;;;;;;6.97;3.78;;;21.30;99.90;;;;;;4990242;28;20118;-51
2022/07/22 01:57:53;;;;;;;5.60;4.15;;;21.30;99.90;;;;;;4990176;28;20071;-51
2022/07/22 02:00:19;;;;;;;7.22;4.43;;;21.30;99.90;;;;;;4975251;28;20077;-54
2022/07/22 02:02:45;;;;;;;5.82;4.32;;;21.30;99.90;;;;;;4990412;28;20027;-48
2022/07/22 02:05:11;;;;;;;5.80;4.35;;;21.30;99.90;;;;;;4990450;28;20023;-48
2022/07/22 02:07:36;;;;;;;6.63;4.78;;;21.30;99.90;;;;;;4990363;28;20031;-48
2022/07/22 02:10:04;;;;;;;5.72;4.32;;;21.30;99.90;;;;;;4974394;28;20086;-50
2022/07/22 02:12:29;;;;;;;6.53;5.10;;;21.30;99.90;;;;;;4974892;28;20062;-48
2022/07/22 02:14:55;;;;;;;6.28;4.70;;;21.30;99.90;;;;;;4989886;28;20109;-48
2022/07/22 02:17:21;;;;;;;6.85;4.68;;;21.20;99.90;;;;;;4975420;28;20023;-49
2022/07/22 02:19:47;;;;;;;6.38;4.57;;;21.20;99.90;;;;;;4974651;28;20026;-49
2022/07/22 02:22:12;;;;;;;4.75;3.65;;;21.20;99.90;;;;;;4975179;28;20023;-51
2022/07/22 02:24:38;;;;;;;5.03;4.18;;;21.10;99.90;;;;;;4973584;28;20042;-54
2022/07/22 02:27:04;;;;;;;6.55;4.10;;;21.10;99.90;;;;;;4989581;28;20081;-48
2022/07/22 02:29:31;;;;;;;5.47;4.63;;;21.10;99.90;;;;;;4974583;28;20031;-49
2022/07/22 02:31:56;;;;;;;5.15;4.35;;;21.00;99.90;;;;;;4974601;28;20062;-50
2022/07/22 02:34:22;;;;;;;5.82;4.25;;;20.90;99.90;;;;;;4975101;28;20065;-48
2022/07/22 02:36:47;;;;;;;6.20;4.63;;;20.90;99.90;;;;;;4973439;28;20027;-48
2022/07/22 02:39:13;;;;;;;5.43;4.45;;;20.80;99.90;;;;;;4974886;28;20030;-47
2022/07/22 02:41:39;;;;;;;7.13;5.22;;;20.70;99.90;;;;;;4989456;28;20027;-47
2022/07/22 02:44:04;;;;;;;7.18;5.03;;;20.60;99.90;;;;;;4989813;28;20031;-48
2022/07/22 02:46:30;;;;;;;8.70;5.40;;;20.50;99.90;;;;;;4989539;28;20073;-47
2022/07/22 02:48:56;;;;;;;7.22;5.45;;;20.50;99.90;;;;;;4989968;28;20026;-48
2022/07/22 02:51:22;;;;;;;6.97;5.25;;;20.40;99.90;;;;;;4973657;28;20031;-48
2022/07/22 02:53:48;;;;;;;7.43;5.85;;;20.30;99.90;;;;;;4989503;28;20023;-48
2022/07/22 02:56:13;;;;;;;8.95;5.38;;;20.30;99.90;;;;;;4974732;28;20019;-47
2022/07/22 02:58:39;;;;;;;7.45;5.68;;;20.20;99.90;;;;;;4990052;28;20059;-47
2022/07/22 03:01:05;;;;;;;9.98;5.95;;;20.20;99.90;;;;;;4974333;28;20440;-48
2022/07/22 03:03:31;;;;;;;8.65;4.97;;;20.10;99.90;;;;;;4989389;28;20109;-49
2022/07/22 03:05:57;;;;;;;8.02;6.03;;;20.10;99.90;;;;;;4974389;28;20023;-47
2022/07/22 03:08:23;;;;;;;6.95;5.93;;;20.00;99.90;;;;;;4989268;28;20027;-48
2022/07/22 03:10:48;;;;;;;9.50;5.60;;;20.00;99.90;;;;;;4974256;28;20069;-47
2022/07/22 03:13:14;;;;;;;8.80;5.30;;;19.90;99.90;;;;;;4974410;28;20042;-49
2022/07/22 03:15:39;;;;;;;10.48;6.07;;;19.90;99.90;;;;;;4974284;28;20030;-48
2022/07/22 03:18:05;;;;;;;8.73;5.63;;;20.00;99.90;;;;;;4989316;28;20050;-47
2022/07/22 03:20:30;;;;;;;10.07;6.07;;;20.00;99.90;;;;;;4989440;28;20031;-51
2022/07/22 03:22:56;;;;;;;22.80;13.88;;;20.00;99.90;;;;;;4973020;28;20018;-47
2022/07/22 03:25:22;;;;;;;8.02;6.47;;;19.90;99.90;;;;;;4992124;28;20481;-52
2022/07/22 03:27:47;;;;;;;9.23;6.28;;;19.90;99.90;;;;;;4992890;28;20118;-50
2022/07/22 03:30:13;;;;;;;8.00;6.25;;;19.90;99.90;;;;;;4993164;28;20478;-50
2022/07/22 03:32:44;;;;;;;8.35;6.00;;;19.90;99.90;;;;;;4993215;28;20027;-51
2022/07/22 03:35:10;;;;;;;10.13;6.65;;;19.80;99.90;;;;;;4978127;28;20019;-48
2022/07/22 03:37:36;;;;;;;8.35;5.65;;;19.90;99.90;;;;;;4993325;28;20118;-48
2022/07/22 03:40:02;;;;;;;8.77;6.55;;;19.90;99.90;;;;;;4977683;28;20015;-47
2022/07/22 03:42:27;;;;;;;8.90;6.18;;;19.90;99.90;;;;;;4977761;28;20015;-47
2022/07/22 03:44:53;;;;;;;10.82;6.22;;;19.90;99.90;;;;;;4992728;28;20053;-47
2022/07/22 03:47:22;;;;;;;8.70;6.93;;;19.90;99.90;;;;;;4992938;28;20031;-49
2022/07/22 03:49:48;;;;;;;14.35;9.50;;;19.90;99.90;;;;;;4977883;28;20042;-48
2022/07/22 03:52:15;;;;;;;10.55;7.38;;;19.90;99.90;;;;;;4993321;28;20031;-48
2022/07/22 03:54:42;;;;;;;8.50;6.47;;;19.90;99.90;;;;;;4977398;28;20386;-48
2022/07/22 03:57:08;;;;;;;8.30;6.53;;;20.00;99.90;;;;;;4992379;28;20019;-48
2022/07/22 03:59:34;;;;;;;9.23;6.45;;;20.00;99.90;;;;;;4992879;28;20030;-48
2022/07/22 04:01:59;;;;;;;9.45;7.22;;;20.10;99.90;;;;;;4977305;28;20027;-49
2022/07/22 04:04:25;;;;;;;9.30;6.82;;;20.10;99.90;;;;;;4977275;28;20066;-49
2022/07/22 04:06:53;;;;;;;10.15;6.25;;;20.10;99.90;;;;;;4992239;28;20066;-51
2022/07/22 04:09:19;;;;;;;11.80;6.88;;;20.20;99.90;;;;;;4992263;28;20066;-47
2022/07/22 04:11:46;;;;;;;13.27;9.25;;;20.30;99.90;;;;;;4992128;28;20041;-49
2022/07/22 04:14:11;;;;;;;10.48;6.30;;;20.40;99.90;;;;;;4991999;28;20034;-48
2022/07/22 04:16:37;;;;;;;9.00;6.95;;;20.60;99.90;;;;;;4991982;28;20031;-49
2022/07/22 04:19:03;;;;;;;11.63;6.88;;;20.70;99.90;;;;;;4991932;28;20109;-48
2022/07/22 04:21:29;;;;;;;10.00;6.63;;;20.80;99.90;;;;;;4991895;28;20085;-48
2022/07/22 04:23:55;;;;;;;11.23;7.05;;;20.90;99.90;;;;;;4977283;28;20097;-47
2022/07/22 04:26:20;;;;;;;12.35;6.68;;;21.00;99.90;;;;;;4977152;28;20025;-49
2022/07/22 04:28:46;;;;;;;10.20;6.78;;;21.00;99.90;;;;;;4992194;28;20015;-53
2022/07/22 04:31:11;;;;;;;8.40;6.13;;;21.00;99.90;;;;;;4976872;28;20031;-50
2022/07/22 04:33:37;;;;;;;15.85;9.85;;;21.00;99.90;;;;;;4976793;28;20397;-51
2022/07/22 04:36:03;;;;;;;24.38;13.75;;;21.00;99.90;;;;;;4975537;28;20109;-53
2022/07/22 04:38:29;;;;;;;32.10;16.52;;;21.00;99.90;;;;;;4991911;28;20106;-47
2022/07/22 04:40:55;;;;;;;36.60;19.23;;;21.00;99.90;;;;;;4991927;28;20075;-48
2022/07/22 04:43:21;;;;;;;34.40;19.15;;;21.00;99.90;;;;;;4991591;28;20054;-47
2022/07/22 04:45:46;;;;;;;33.70;18.42;;;20.90;99.90;;;;;;4976566;28;20023;-48
2022/07/22 04:48:12;;;;;;;29.75;15.43;;;20.90;99.90;;;;;;4976882;28;20029;-48
2022/07/22 04:50:38;;;;;;;23.08;12.50;;;20.80;99.90;;;;;;4991438;28;20046;-47
2022/07/22 04:53:04;;;;;;;16.40;9.98;;;20.70;99.90;;;;;;4976491;28;20026;-47
2022/07/22 04:55:30;;;;;;;11.25;7.93;;;20.70;99.90;;;;;;4976322;28;20023;-48
2022/07/22 04:57:55;;;;;;;10.32;7.57;;;20.70;99.90;;;;;;4991459;28;20061;-48
2022/07/22 05:00:22;;;;;;;11.75;7.13;;;20.70;99.90;;;;;;4991294;28;20058;-50
2022/07/22 05:02:47;;;;;;;10.60;7.20;;;20.70;99.90;;;;;;4976304;28;20023;-52
2022/07/22 05:05:22;;;;;;;11.10;6.88;;;20.70;99.90;;;;;;4991206;28;20078;-50
2022/07/22 05:07:48;;;;;;;9.60;6.22;;;20.80;99.90;;;;;;4976174;28;20050;-49
2022/07/22 05:10:14;;;;;;;8.18;6.18;;;21.00;99.90;;;;;;4992091;28;20023;-53
2022/07/22 05:12:40;;;;;;;7.95;5.43;;;21.10;99.90;;;;;;4991566;28;20477;-51
2022/07/22 05:15:06;;;;;;;7.75;5.40;;;21.20;99.90;;;;;;4976006;28;20508;-49
2022/07/22 05:17:31;;;;;;;9.25;5.72;;;21.30;99.90;;;;;;4990865;28;20023;-47
2022/07/22 05:19:57;;;;;;;7.28;5.68;;;21.30;99.90;;;;;;4975950;28;20027;-51
2022/07/22 05:22:23;;;;;;;8.40;5.80;;;21.40;99.90;;;;;;4990783;28;20030;-47
2022/07/22 05:24:48;;;;;;;7.22;4.78;;;21.40;99.90;;;;;;4976345;28;20098;-47
2022/07/22 05:27:14;;;;;;;7.05;4.70;;;21.40;99.90;;;;;;4990696;28;20169;-46
2022/07/22 05:29:40;;;;;;;5.82;4.53;;;21.60;99.90;;;;;;4990950;28;20077;-46
2022/07/22 05:32:05;;;;;;;4.45;3.88;;;21.70;99.90;;;;;;4975690;28;20073;-45
2022/07/22 05:34:31;;;;;;;5.63;3.85;;;21.80;99.90;;;;;;4976075;28;20037;-46
2022/07/22 05:36:57;;;;;;;5.78;4.03;;;22.10;99.90;;;;;;4990992;28;20026;-45
2022/07/22 05:39:22;;;;;;;6.18;3.75;;;22.50;99.90;;;;;;4990457;28;20066;-45
2022/07/22 05:41:48;;;;;;;7.38;3.67;;;22.80;99.90;;;;;;4990469;28;20054;-49
2022/07/22 05:44:14;;;;;;;8.73;3.95;;;23.00;99.90;;;;;;4975436;28;20037;-47
2022/07/22 05:46:40;;;;;;;8.27;3.40;;;23.20;99.90;;;;;;4975235;28;20101;-49
2022/07/22 05:49:07;;;;;;;5.20;3.92;;;23.30;99.90;;;;;;4990328;28;20081;-49
2022/07/22 05:51:34;;;;;;;4.50;3.78;;;23.50;99.90;;;;;;4990578;28;20050;-48
2022/07/22 05:54:02;;;;;;;6.10;3.72;;;23.60;99.90;;;;;;4990138;28;20036;-48
2022/07/22 05:56:27;;;;;;;3.38;3.08;;;23.90;99.90;;;;;;4990229;28;20110;-47
2022/07/22 05:58:53;;;;;;;5.15;3.05;;;24.30;99.90;;;;;;4975318;28;20076;-49
2022/07/22 06:01:19;;;;;;;4.13;3.25;;;25.10;99.90;;;;;;4975374;28;20027;-47
2022/07/22 06:03:44;;;;;;;3.65;2.83;;;25.70;99.90;;;;;;4975355;28;20030;-48
2022/07/22 06:06:10;;;;;;;3.83;2.90;;;26.10;99.90;;;;;;4990069;28;20061;-48
2022/07/22 06:08:36;;;;;;;3.28;2.92;;;26.30;99.90;;;;;;4989949;28;20030;-50
2022/07/22 06:11:01;;;;;;;3.38;2.53;;;26.30;99.90;;;;;;4989875;28;20027;-50
2022/07/22 06:13:27;;;;;;;2.63;2.42;;;26.40;99.90;;;;;;4975054;28;20493;-50
2022/07/22 06:15:53;;;;;;;3.13;2.67;;;26.70;99.90;;;;;;4990102;28;20027;-51
2022/07/22 06:18:18;;;;;;;4.05;2.97;;;26.90;99.90;;;;;;4989894;28;20028;-50
2022/07/22 06:20:44;;;;;;;3.90;2.92;;;27.00;99.90;;;;;;4974673;28;20027;-51
2022/07/22 06:23:10;;;;;;;3.75;2.35;;;26.90;99.90;;;;;;4990123;28;20023;-47
2022/07/22 06:25:35;;;;;;;5.15;2.60;;;26.90;99.90;;;;;;4990110;28;20030;-48
2022/07/22 06:28:01;;;;;;;4.20;2.83;;;26.60;99.90;;;;;;4990629;28;20029;-48
2022/07/22 06:30:27;;;;;;;4.45;2.33;;;26.50;99.90;;;;;;4989673;28;20113;-48
2022/07/22 06:32:53;;;;;;;2.80;2.17;;;26.50;99.90;;;;;;4989754;28;20027;-48
2022/07/22 06:35:19;;;;;;;3.65;1.90;;;26.50;99.90;;;;;;4974680;28;20067;-47
2022/07/22 06:37:45;;;;;;;1.58;1.48;;;26.20;99.90;;;;;;4990010;28;20054;-47
2022/07/22 06:40:11;;;;;;;4.35;2.10;;;26.00;99.90;;;;;;4989510;28;20023;-48
2022/07/22 06:42:38;;;;;;;2.70;1.80;;;26.00;99.90;;;;;;4989562;28;20034;-47
2022/07/22 06:45:04;;;;;;;3.40;1.48;;;25.90;99.90;;;;;;4989547;28;20031;-51
2022/07/22 06:47:31;;;;;;;1.85;1.42;;;25.90;99.90;;;;;;4989509;28;20050;-51
2022/07/22 06:49:57;;;;;;;2.50;1.70;;;25.90;99.90;;;;;;4974483;28;20027;-52
2022/07/22 06:52:23;;;;;;;1.52;1.42;;;26.20;99.90;;;;;;4990595;28;20034;-48
2022/07/22 06:54:49;;;;;;;2.28;1.50;;;26.70;99.90;;;;;;4974420;28;20058;-49
2022/07/22 06:57:14;;;;;;;2.00;1.65;;;27.70;99.90;;;;;;4989778;28;20110;-47
2022/07/22 06:59:40;;;;;;;1.40;1.30;;;28.90;99.90;;;;;;4976382;28;20030;-48
2022/07/22 07:02:06;;;;;;;1.85;1.63;;;30.00;99.90;;;;;;4977342;28;20045;-47
2022/07/22 07:04:32;;;;;;;2.03;1.52;;;30.70;99.90;;;;;;4993380;28;20062;-46
2022/07/22 07:06:57;;;;;;;3.40;2.00;;;31.50;99.90;;;;;;4978401;28;20437;-46
2022/07/22 07:09:23;;;;;;;1.92;1.73;;;32.30;99.50;;;;;;4993274;28;20026;-46
2022/07/22 07:11:49;;;;;;;2.83;2.00;;;32.90;95.70;;;;;;4993301;28;20035;-46
2022/07/22 07:14:14;;;;;;;2.15;1.83;;;33.50;94.40;;;;;;4978119;28;20030;-46
2022/07/22 07:16:40;;;;;;;1.90;1.80;;;34.10;92.00;;;;;;4993222;28;20023;-50
2022/07/22 07:19:05;;;;;;;4.95;2.15;;;34.10;91.90;;;;;;4993473;28;20039;-52
2022/07/22 07:21:31;;;;;;;2.63;2.15;;;34.60;90.90;;;;;;4992994;28;20125;-51
2022/07/22 07:23:57;;;;;;;2.58;1.90;;;35.10;88.90;;;;;;4993116;28;20023;-46
2022/07/22 07:26:22;;;;;;;2.47;2.10;;;35.10;81.90;;;;;;4993583;28;20042;-46
2022/07/22 07:28:48;;;;;;;2.15;1.80;;;35.70;82.00;;;;;;4978315;28;20485;-48
2022/07/22 07:31:13;;;;;;;2.65;2.08;;;36.10;83.00;;;;;;4993131;28;20031;-49
2022/07/22 07:33:39;;;;;;;2.03;1.90;;;35.80;76.50;;;;;;4977902;28;20022;-46
2022/07/22 07:36:05;;;;;;;1.95;1.75;;;35.80;78.20;;;;;;4992757;28;20023;-46
2022/07/22 07:38:31;;;;;;;1.85;1.75;;;36.60;77.80;;;;;;4992886;28;20023;-46
2022/07/22 07:40:57;;;;;;;3.15;2.00;;;37.50;75.00;;;;;;4977775;28;20486;-47
2022/07/22 07:43:22;;;;;;;2.45;2.25;;;36.70;73.50;;;;;;4977761;28;20106;-46
2022/07/22 07:45:48;;;;;;;2.15;1.95;;;36.90;74.40;;;;;;4977928;28;20069;-47
2022/07/22 07:48:14;;;;;;;2.75;2.35;;;35.20;73.50;;;;;;4993556;28;20114;-46
2022/07/22 07:50:40;;;;;;;2.20;2.00;;;35.70;72.10;;;;;;4992480;28;20027;-47
2022/07/22 07:53:05;;;;;;;3.75;2.10;;;36.00;74.00;;;;;;4993332;28;20027;-48
2022/07/22 07:55:32;;;;;;;2.30;2.10;;;37.10;71.60;;;;;;4976537;28;20027;-49
2022/07/22 07:57:57;;;;;;;2.05;1.80;;;37.70;68.60;;;;;;4977441;28;20019;-47
2022/07/22 08:00:30;;;;;;;2.20;1.92;;;37.80;69.70;;;;;;4992661;28;20493;-46
2022/07/22 08:02:56;;;;;;;2.47;2.00;;;38.40;68.70;;;;;;4977768;28;20082;-46
2022/07/22 08:05:21;;;;;;;2.85;2.30;;;38.70;67.60;;;;;;4993164;28;20114;-46
2022/07/22 08:07:48;;;;;;;2.40;2.20;;;39.60;64.80;;;;;;4993187;28;20066;-47
2022/07/22 08:10:14;;;;;;;2.45;2.00;;;39.30;62.40;;;;;;4977028;28;20023;-48
2022/07/22 08:12:39;;;;;;;2.70;2.35;;;39.60;65.60;;;;;;4992193;28;20551;-46
2022/07/22 08:15:06;;;;;;;2.33;2.00;;;40.40;64.30;;;;;;4992056;28;20513;-46
2022/07/22 08:17:34;;;;;;;2.47;2.28;;;40.20;61.90;;;;;;4992899;28;20034;-46
2022/07/22 08:19:59;;;;;;;2.42;2.20;;;39.80;61.10;;;;;;4977117;28;20081;-46
2022/07/22 08:22:25;;;;;;;2.60;2.25;;;40.80;60.90;;;;;;4977069;28;20513;-46
2022/07/22 08:24:50;;;;;;;2.28;1.95;;;40.20;59.10;;;;;;4977077;28;20030;-45
2022/07/22 08:27:16;;;;;;;5.18;2.63;;;39.70;59.30;;;;;;4992155;28;20134;-46
2022/07/22 08:29:42;;;;;;;2.38;2.17;;;40.70;59.60;;;;;;4991860;28;20027;-47
2022/07/22 08:32:08;;;;;;;3.08;2.65;;;41.50;59.40;;;;;;4975763;28;20110;-52
2022/07/22 08:34:35;;;;;;;2.30;2.10;;;41.90;58.30;;;;;;4992033;28;20073;-46
2022/07/22 08:37:00;;;;;;;3.03;2.10;;;42.30;56.60;;;;;;4976809;28;20107;-51
2022/07/22 08:39:26;;;;;;;7.18;2.75;;;41.60;56.30;;;;;;4992225;28;20117;-49
2022/07/22 08:41:53;;;;;;;2.60;2.40;;;40.60;58.80;;;;;;4975793;28;20022;-50
2022/07/22 08:44:19;;;;;;;2.30;2.10;;;41.00;56.60;;;;;;4991712;28;20078;-49
2022/07/22 08:46:45;;;;;;;2.92;1.95;;;41.60;54.90;;;;;;4992410;28;20026;-49
2022/07/22 08:49:14;;;;;;;2.28;2.05;;;40.30;55.70;;;;;;4991786;28;20030;-49
2022/07/22 08:51:40;;;;;;;4.80;2.23;;;41.00;58.10;;;;;;4976700;28;20105;-49
2022/07/22 08:54:05;;;;;;;3.10;2.15;;;42.00;54.80;;;;;;4991289;28;20125;-51
2022/07/22 08:56:31;;;;;;;2.60;2.40;;;42.30;54.50;;;;;;4991445;28;20085;-47
2022/07/22 08:58:57;;;;;;;2.00;1.90;;;42.50;53.10;;;;;;4991680;28;20019;-48
2022/07/22 09:01:22;;;;;;;2.50;2.22;;;43.40;52.60;;;;;;4976213;28;20023;-47
2022/07/22 09:03:49;;;;;;;2.60;2.40;;;42.90;52.20;;;;;;4991279;28;20027;-47
2022/07/22 09:06:16;;;;;;;2.92;2.20;;;42.60;52.80;;;;;;4991515;28;20054;-52
2022/07/22 09:09:03;;;;;;;3.08;2.30;;;43.10;51.90;;;;;;4991053;28;20026;-47
2022/07/22 09:11:30;;;;;;;2.58;2.38;;;43.30;51.20;;;;;;4976044;28;20390;-49
2022/07/22 09:14:00;;;;;;;3.25;2.42;;;42.60;52.70;;;;;;4975923;28;20113;-50
2022/07/22 09:16:38;;;;;;;2.55;2.05;;;42.20;51.60;;;;;;4990996;28;20034;-48
2022/07/22 09:19:04;;;;;;;2.38;2.17;;;42.80;51.60;;;;;;4976223;28;20041;-47
2022/07/22 09:21:31;;;;;;;4.20;2.50;;;42.80;50.80;;;;;;4976245;28;20034;-47
2022/07/22 09:23:56;;;;;;;2.50;2.30;;;43.40;51.90;;;;;;4990884;28;20037;-48
2022/07/22 09:26:37;;;;;;;3.03;2.45;;;43.60;50.80;;;;;;4975808;28;20022;-52
2022/07/22 09:29:04;;;;;;;3.47;2.55;;;44.10;51.30;;;;;;4976293;28;20030;-52
2022/07/22 09:31:33;;;;;;;2.55;2.35;;;44.00;50.10;;;;;;4976088;28;20030;-50
2022/07/22 09:33:58;;;;;;;2.70;2.50;;;43.30;49.60;;;;;;4974399;28;20027;-53
2022/07/22 09:36:24;;;;;;;2.63;2.30;;;42.30;50.50;;;;;;4975683;28;20033;-51
2022/07/22 09:38:50;;;;;;;6.30;2.15;;;41.50;52.30;;;;;;4975646;28;20026;-51
2022/07/22 09:41:17;;;;;;;2.60;2.17;;;42.30;52.00;;;;;;4975750;28;20106;-53
2022/07/22 09:43:43;;;;;;;2.80;2.60;;;42.70;50.70;;;;;;4975820;28;20023;-50
2022/07/22 09:46:09;;;;;;;2.70;2.50;;;43.00;50.40;;;;;;4990807;28;20027;-50
2022/07/22 09:48:37;;;;;;;2.50;2.30;;;42.10;49.80;;;;;;4975571;28;20027;-52
2022/07/22 09:51:03;;;;;;;2.63;2.28;;;40.90;52.10;;;;;;4990647;28;20034;-47
2022/07/22 09:53:31;;;;;;;2.50;2.30;;;40.20;52.50;;;;;;4975472;28;20390;-48
2022/07/22 09:55:58;;;;;;;3.03;2.50;;;40.20;52.00;;;;;;4975348;28;20031;-53
2022/07/22 09:58:24;;;;;;;3.70;2.60;;;40.50;52.80;;;;;;4975638;28;20034;-52
2022/07/22 10:00:51;;;;;;;2.47;2.28;;;41.90;51.90;;;;;;4975172;28;20114;-53
2022/07/22 10:03:32;;;;;;;3.80;2.40;;;43.20;50.60;;;;;;4990932;28;20030;-50
2022/07/22 10:05:59;;;;;;;5.57;2.97;;;44.00;49.80;;;;;;4989981;28;20061;-49
2022/07/22 10:08:30;;;;;;;2.80;2.60;;;44.30;49.80;;;;;;4974187;28;20027;-48
2022/07/22 10:11:00;;;;;;;3.55;2.30;;;44.40;50.00;;;;;;4974986;28;20037;-53
2022/07/22 10:13:26;;;;;;;2.70;2.50;;;44.60;48.80;;;;;;4974085;28;20034;-47
2022/07/22 10:15:53;;;;;;;3.83;2.65;;;44.60;48.30;;;;;;4990453;28;20121;-49
2022/07/22 10:18:19;;;;;;;2.83;2.63;;;44.00;49.30;;;;;;4990258;28;20023;-51
2022/07/22 10:20:46;;;;;;;2.85;2.42;;;43.30;48.90;;;;;;4990184;28;20042;-54
2022/07/22 10:23:13;;;;;;;2.50;2.30;;;43.50;49.30;;;;;;4990209;28;20056;-47
2022/07/22 10:25:58;;;;;;;2.58;2.40;;;43.40;48.50;;;;;;4990197;28;20027;-50
2022/07/22 10:28:30;;;;;;;4.85;2.70;;;43.10;48.80;;;;;;4974905;28;20033;-47
2022/07/22 10:31:17;;;;;;;2.85;2.65;;;42.50;49.80;;;;;;4973640;28;20054;-48
2022/07/22 10:33:45;;;;;;;3.08;2.78;;;42.10;48.30;;;;;;4972979;28;20117;-49
2022/07/22 10:36:11;;;;;;;3.30;3.00;;;39.80;50.40;;;;;;4990413;28;20023;-49
2022/07/22 10:38:36;;;;;;;6.38;3.10;;;38.40;52.60;;;;;;4974729;28;20027;-46
2022/07/22 10:41:05;;;;;;;2.72;2.40;;;37.10;53.50;;;;;;4989892;28;20070;-50
2022/07/22 10:43:45;;;;;;;2.95;2.55;;;37.20;55.20;;;;;;4989867;28;20022;-52
2022/07/22 10:46:10;;;;;;;4.28;2.63;;;37.40;55.60;;;;;;4989601;28;20037;-52
2022/07/22 10:48:36;;;;;;;2.78;2.50;;;37.40;55.00;;;;;;4974650;28;20031;-51
2022/07/22 10:51:17;;;;;;;4.35;2.38;;;36.60;54.60;;;;;;4973375;28;20074;-46
2022/07/22 10:54:01;;;;;;;3.45;2.20;;;36.10;56.20;;;;;;4989883;28;20030;-49
2022/07/22 10:56:29;;;;;;;2.65;2.45;;;36.20;56.00;;;;;;4974495;28;20444;-50
2022/07/22 10:59:06;;;;;;;2.58;2.30;;;36.10;56.80;;;;;;4989726;28;20070;-47
2022/07/22 11:01:32;;;;;;;2.83;2.63;;;35.70;56.90;;;;;;4989333;28;20030;-47
2022/07/22 11:04:21;;;;;;;5.82;2.70;;;35.40;57.80;;;;;;4973241;28;20027;-48
2022/07/22 11:06:49;;;;;;;3.25;2.72;;;35.30;57.50;;;;;;4974451;28;20089;-47
2022/07/22 11:09:17;;;;;;;5.72;2.78;;;35.10;58.20;;;;;;4990229;28;20117;-47
2022/07/22 11:11:52;;;;;;;4.65;2.70;;;34.70;58.90;;;;;;4989187;28;20027;-52
2022/07/22 11:14:30;;;;;;;3.22;2.33;;;34.30;58.70;;;;;;4989248;28;20073;-47
2022/07/22 11:16:58;;;;;;;5.90;3.40;;;33.70;59.50;;;;;;4989410;28;20034;-49
2022/07/22 11:19:27;;;;;;;5.80;3.20;;;33.00;60.50;;;;;;4974490;28;20054;-46
2022/07/22 11:21:58;;;;;;;3.70;3.03;;;31.70;61.10;;;;;;4989557;28;20065;-47
2022/07/22 11:24:25;;;;;;;3.28;2.90;;;30.60;63.80;;;;;;4989222;28;20497;-52
2022/07/22 11:26:53;;;;;;;4.55;3.17;;;30.60;65.30;;;;;;4973375;28;20040;-47
2022/07/22 11:29:25;;;;;;;3.45;2.53;;;30.80;64.30;;;;;;4989395;28;20061;-51
2022/07/22 11:31:51;;;;;;;3.35;3.05;;;30.80;66.00;;;;;;4989576;28;20027;-48
2022/07/22 11:34:17;;;;;;;3.13;2.88;;;30.70;65.00;;;;;;4974027;28;20033;-51
2022/07/22 11:36:45;;;;;;;4.13;2.83;;;30.20;65.40;;;;;;4989097;28;20027;-50
2022/07/22 11:39:13;;;;;;;3.88;3.47;;;30.20;66.80;;;;;;4989000;28;20031;-50
2022/07/22 11:41:39;;;;;;;3.10;2.80;;;30.30;65.60;;;;;;4974043;28;20046;-49
2022/07/22 11:44:06;;;;;;;6.78;3.78;;;30.30;67.00;;;;;;4989794;28;20073;-46
2022/07/22 11:46:37;;;;;;;3.30;3.00;;;30.20;66.60;;;;;;4992174;28;20023;-52
2022/07/22 11:49:03;;;;;;;4.03;3.63;;;30.40;67.50;;;;;;4992649;28;20110;-50
2022/07/22 11:51:30;;;;;;;3.40;3.10;;;30.50;66.70;;;;;;4992797;28;20019;-50
2022/07/22 11:53:57;;;;;;;4.60;3.20;;;30.70;66.80;;;;;;4992488;28;20482;-52
2022/07/22 11:56:22;;;;;;;4.43;3.13;;;30.70;66.20;;;;;;4992453;28;20077;-46
2022/07/22 11:58:49;;;;;;;3.60;3.30;;;30.40;66.00;;;;;;4992461;28;20023;-47
2022/07/22 12:01:17;;;;;;;4.05;3.10;;;30.30;67.10;;;;;;4977350;28;20111;-50
2022/07/22 12:03:48;;;;;;;4.60;3.00;;;30.50;68.00;;;;;;4992331;28;20077;-50
2022/07/22 12:06:17;;;;;;;4.22;3.15;;;30.60;67.10;;;;;;4993206;28;20033;-48
2022/07/22 12:08:46;;;;;;;5.28;3.42;;;30.80;66.30;;;;;;4992265;28;20370;-47
2022/07/22 12:11:14;;;;;;;4.10;2.75;;;30.90;66.30;;;;;;4992675;28;20023;-46
2022/07/22 12:13:47;;;;;;;3.55;3.25;;;31.00;66.20;;;;;;4993055;28;20026;-50
2022/07/22 12:16:40;;;;;;;3.90;3.50;;;31.00;65.70;;;;;;4992137;28;20027;-47
2022/07/22 12:19:13;;;;;;;4.30;3.50;;;30.70;66.40;;;;;;4977115;28;20050;-48
2022/07/22 12:21:56;;;;;;;4.22;3.83;;;30.90;65.80;;;;;;4991876;28;20034;-46
2022/07/22 12:24:28;;;;;;;3.83;3.40;;;30.60;65.40;;;;;;4976952;28;20030;-46
2022/07/22 12:26:56;;;;;;;3.47;3.15;;;30.40;66.60;;;;;;4976990;28;20370;-51
2022/07/22 12:29:23;;;;;;;4.03;3.42;;;30.50;67.70;;;;;;4991878;28;20046;-48
2022/07/22 12:31:57;;;;;;;3.25;2.72;;;30.50;66.80;;;;;;4977171;28;20031;-47
2022/07/22 12:34:32;;;;;;;6.30;3.88;;;30.60;66.70;;;;;;4976752;28;20015;-46
2022/07/22 12:36:58;;;;;;;4.25;3.53;;;30.10;66.90;;;;;;4976768;28;20019;-52
2022/07/22 12:39:24;;;;;;;10.73;4.82;;;30.00;66.80;;;;;;4991948;28;20065;-49
2022/07/22 12:41:52;;;;;;;4.93;3.67;;;29.90;67.10;;;;;;4992173;28;20071;-50
2022/07/22 12:44:26;;;;;;;7.13;3.22;;;29.90;68.50;;;;;;4976655;28;20095;-52